Time;durP1;ratioP1;P1;durP2;ratioP2;P2;SDS_P1;SDS_P2;PMS_P1;PMS_P2;Temp;Humidity;BMP_temperature;BMP_pressure;BME280_temperature;BME280_humidity;BME280_pressure;Samples;Min_cycle;Max_cycle;Signal;HPM_P1;HPM_P2
2022/06/12 00:00:30;;;;;;;23.30;6.75;;;9.70;99.90;;;;;;5056334;28;20037;-74
2022/06/12 00:02:58;;;;;;;19.50;6.70;;;9.70;99.90;;;;;;5056738;28;20151;-74
2022/06/12 00:05:27;;;;;;;35.17;9.18;;;9.70;99.90;;;;;;5056091;28;20029;-74
2022/06/12 00:07:53;;;;;;;26.65;7.55;;;9.70;99.90;;;;;;5056776;28;20365;-74
2022/06/12 00:10:19;;;;;;;30.58;7.78;;;9.70;99.90;;;;;;5056039;28;20009;-74
2022/06/12 00:12:45;;;;;;;16.98;7.63;;;9.70;99.90;;;;;;5054512;28;20447;-74
2022/06/12 00:15:14;;;;;;;31.13;7.80;;;9.60;99.90;;;;;;5056253;28;20431;-74
2022/06/12 00:17:43;;;;;;;27.00;8.25;;;9.60;99.90;;;;;;5056229;28;20437;-74
2022/06/12 00:20:13;;;;;;;37.08;9.05;;;9.60;99.90;;;;;;5056113;28;20444;-74
2022/06/12 00:22:40;;;;;;;27.75;8.48;;;9.60;99.90;;;;;;5056157;28;20056;-74
2022/06/12 00:25:09;;;;;;;39.95;9.90;;;9.70;99.90;;;;;;5056077;28;20469;-74
2022/06/12 00:27:37;;;;;;;31.88;7.55;;;9.70;99.90;;;;;;5056283;28;20029;-74
2022/06/12 00:30:05;;;;;;;32.75;8.90;;;9.70;99.90;;;;;;5077802;23;20036;-66
2022/06/12 00:32:31;;;;;;;30.52;7.75;;;9.70;99.90;;;;;;5055126;28;20095;-66
2022/06/12 00:34:57;;;;;;;33.58;8.38;;;9.70;99.90;;;;;;5055033;28;20447;-66
2022/06/12 00:37:25;;;;;;;49.22;11.85;;;9.70;99.90;;;;;;5055010;28;20471;-66
2022/06/12 00:39:53;;;;;;;48.00;9.95;;;9.70;99.90;;;;;;5054855;28;20021;-66
2022/06/12 00:42:41;;;;;;;28.90;8.15;;;9.80;99.90;;;;;;5036925;28;20029;-66
2022/06/12 00:45:38;;;;;;;28.77;8.15;;;9.80;99.90;;;;;;5035138;28;20163;-66
2022/06/12 00:48:12;;;;;;;31.55;8.95;;;9.70;99.90;;;;;;5034915;28;20052;-66
2022/06/12 00:50:42;;;;;;;27.65;8.95;;;9.80;99.90;;;;;;5039362;28;20091;-66
2022/06/12 00:53:16;;;;;;;30.50;7.97;;;9.70;99.90;;;;;;5055267;28;20104;-66
2022/06/12 00:55:53;;;;;;;36.88;9.55;;;9.70;99.90;;;;;;5054515;28;20477;-66
2022/06/12 00:58:23;;;;;;;27.17;7.50;;;9.60;99.90;;;;;;5040481;28;20389;-66
2022/06/12 01:00:49;;;;;;;36.63;8.35;;;9.60;99.90;;;;;;5034819;28;20025;-66
2022/06/12 01:03:16;;;;;;;38.65;9.27;;;9.50;99.90;;;;;;5034818;28;20033;-66
2022/06/12 01:08:26;;;;;;;;;;;9.70;99.90;;;;;;5035437;28;20099;-66
2022/06/12 01:11:06;;;;;;;35.45;8.85;;;9.80;99.90;;;;;;5034407;28;19905;-66
2022/06/12 01:13:40;;;;;;;53.53;10.52;;;10.00;99.90;;;;;;5034217;28;20055;-66
2022/06/12 01:16:14;;;;;;;28.80;8.27;;;10.10;99.90;;;;;;5034637;28;20033;-66
2022/06/12 01:18:43;;;;;;;;;;;10.00;99.90;;;;;;5035272;28;20364;-66
2022/06/12 01:21:30;;;;;;;39.53;8.50;;;10.00;99.90;;;;;;5033772;28;19905;-66
2022/06/12 01:24:13;;;;;;;44.78;9.23;;;10.00;99.90;;;;;;5033418;28;20499;-66
2022/06/12 01:26:58;;;;;;;37.33;8.93;;;10.10;99.90;;;;;;5034331;28;20032;-66
2022/06/12 01:29:44;;;;;;;34.28;8.02;;;10.10;99.90;;;;;;5034412;28;20156;-66
2022/06/12 01:32:33;;;;;;;43.78;9.38;;;10.00;99.90;;;;;;5033940;28;20485;-66
2022/06/12 01:35:17;;;;;;;40.42;9.23;;;10.00;99.90;;;;;;5033958;28;20029;-66
2022/06/12 01:37:59;;;;;;;19.80;7.00;;;9.90;99.90;;;;;;5033822;28;20497;-66
2022/06/12 01:40:44;;;;;;;31.75;8.93;;;9.90;99.90;;;;;;5047545;28;20519;-66
2022/06/12 01:43:36;;;;;;;31.88;8.15;;;9.80;99.90;;;;;;5053905;28;20416;-66
2022/06/12 01:46:05;;;;;;;25.83;7.60;;;9.80;99.90;;;;;;5054197;28;20083;-66
2022/06/12 01:48:40;;;;;;;18.85;6.35;;;9.80;99.90;;;;;;5053700;28;20040;-66
2022/06/12 01:51:32;;;;;;;34.88;8.88;;;9.70;99.90;;;;;;5051914;28;20023;-66
2022/06/12 01:54:24;;;;;;;33.75;9.63;;;9.80;99.90;;;;;;5030690;28;20036;-66
2022/06/12 01:57:04;;;;;;;36.50;8.90;;;9.80;99.90;;;;;;5033680;28;20055;-66
2022/06/12 01:59:39;;;;;;;46.45;8.75;;;9.80;99.90;;;;;;5033831;28;20026;-66
2022/06/12 02:02:26;;;;;;;32.67;7.80;;;9.80;99.90;;;;;;5033526;28;20499;-66
2022/06/12 02:05:00;;;;;;;36.22;8.48;;;9.70;99.90;;;;;;5033430;28;20033;-66
2022/06/12 02:07:34;;;;;;;38.05;8.23;;;9.70;99.90;;;;;;5033520;28;20076;-66
2022/06/12 02:10:14;;;;;;;55.33;8.80;;;9.80;99.90;;;;;;5033643;28;20032;-66
2022/06/12 02:15:37;;;;;;;35.35;8.32;;;9.90;99.90;;;;;;5033949;28;20036;-66
2022/06/12 02:18:43;;;;;;;51.33;9.07;;;9.90;99.90;;;;;;5033664;28;20057;-66
2022/06/12 02:21:26;;;;;;;41.88;10.30;;;9.90;99.90;;;;;;5016250;28;20064;-66
2022/06/12 02:24:04;;;;;;;54.40;8.93;;;10.00;99.90;;;;;;5045736;28;20025;-66
2022/06/12 02:26:36;;;;;;;22.77;8.45;;;10.10;99.90;;;;;;5053487;28;20179;-66
2022/06/12 02:29:06;;;;;;;41.10;9.27;;;10.10;99.90;;;;;;5053446;28;20027;-66
2022/06/12 02:31:36;;;;;;;36.92;9.23;;;10.30;99.90;;;;;;5053091;28;20047;-66
2022/06/12 02:34:08;;;;;;;41.92;8.95;;;10.30;99.90;;;;;;5047463;28;20018;-66
2022/06/12 02:36:39;;;;;;;43.88;9.50;;;10.40;99.90;;;;;;5037762;28;20026;-66
2022/06/12 02:39:17;;;;;;;44.30;9.45;;;10.40;99.90;;;;;;5037284;28;20031;-66
2022/06/12 02:41:50;;;;;;;44.13;10.43;;;10.40;99.90;;;;;;5037109;28;20108;-66
2022/06/12 02:44:24;;;;;;;54.78;10.77;;;10.40;99.90;;;;;;5037215;28;20121;-66
2022/06/12 02:46:54;;;;;;;;;;;10.50;99.90;;;;;;5037762;28;20037;-66
2022/06/12 02:49:19;;;;;;;53.13;9.98;;;10.50;99.90;;;;;;5037654;28;20261;-66
2022/06/12 02:51:53;;;;;;;35.97;8.98;;;10.50;99.90;;;;;;5036937;28;20024;-66
2022/06/12 02:54:41;;;;;;;51.42;10.93;;;10.50;99.90;;;;;;5037757;28;20424;-66
2022/06/12 02:57:42;;;;;;;47.53;9.75;;;10.60;99.90;;;;;;5037164;28;20026;-66
2022/06/12 03:00:11;;;;;;;50.08;11.93;;;10.60;99.90;;;;;;5003348;28;20037;-66
2022/06/12 03:02:52;;;;;;;55.95;10.65;;;10.80;99.90;;;;;;5037048;28;20120;-66
2022/06/12 03:05:30;;;;;;;45.30;10.25;;;11.00;99.90;;;;;;5037001;28;20084;-66
2022/06/12 03:08:06;;;;;;;50.60;11.20;;;11.10;99.90;;;;;;5037301;28;20021;-66
2022/06/12 03:10:39;;;;;;;41.55;10.55;;;11.20;99.90;;;;;;5036917;28;20068;-66
2022/06/12 03:13:07;;;;;;;50.22;11.10;;;11.20;99.90;;;;;;5036962;28;20076;-66
2022/06/12 03:15:43;;;;;;;44.15;12.43;;;11.40;99.90;;;;;;5036602;28;20501;-66
2022/06/12 03:18:13;;;;;;;49.05;10.30;;;11.40;99.90;;;;;;5036770;28;20033;-66
2022/06/12 03:21:18;;;;;;;50.08;10.52;;;11.60;99.90;;;;;;5036467;28;20018;-66
2022/06/12 03:24:04;;;;;;;;;;;11.70;99.90;;;;;;5037118;28;20386;-66
2022/06/12 03:27:05;;;;;;;57.25;11.00;;;11.80;99.90;;;;;;5036673;28;19915;-66
2022/06/12 03:30:08;;;;;;;57.38;10.82;;;11.90;99.90;;;;;;5036428;28;20113;-66
2022/06/12 03:33:01;;;;;;;54.53;10.07;;;12.00;99.90;;;;;;5039787;28;20033;-66
2022/06/12 03:35:37;;;;;;;46.47;9.75;;;12.10;99.90;;;;;;5056122;28;20021;-66
2022/06/12 03:38:34;;;;;;;40.58;9.32;;;12.10;99.90;;;;;;5056487;28;20051;-66
2022/06/12 03:41:24;;;;;;;48.25;8.70;;;12.10;99.90;;;;;;5051827;28;20076;-66
2022/06/12 03:43:59;;;;;;;50.17;10.57;;;12.10;99.90;;;;;;5036595;28;20029;-66
2022/06/12 03:47:02;;;;;;;40.03;8.30;;;12.20;99.90;;;;;;5035483;28;20017;-66
2022/06/12 03:49:30;;;;;;;51.92;10.00;;;12.30;99.90;;;;;;5036264;28;20029;-66
2022/06/12 03:52:30;;;;;;;39.20;9.45;;;12.30;99.90;;;;;;5036052;28;20055;-66
2022/06/12 03:55:15;;;;;;;49.53;9.57;;;12.30;99.90;;;;;;5032773;28;20045;-66
2022/06/12 03:57:54;;;;;;;41.00;8.07;;;12.40;99.90;;;;;;5035983;28;20034;-66
2022/06/12 04:00:31;;;;;;;34.85;8.38;;;12.40;99.90;;;;;;5035959;28;20041;-66
2022/06/12 04:03:03;;;;;;;41.97;8.52;;;12.50;99.90;;;;;;5035969;28;20517;-66
2022/06/12 04:06:03;;;;;;;49.88;9.13;;;12.60;99.90;;;;;;5035595;28;20529;-66
2022/06/12 04:08:35;;;;;;;40.08;7.55;;;12.70;99.90;;;;;;5035708;28;20033;-67
2022/06/12 04:11:01;;;;;;;40.50;6.63;;;12.70;99.90;;;;;;5035747;28;20014;-66
2022/06/12 04:13:27;;;;;;;46.05;8.57;;;12.80;99.90;;;;;;5035744;28;20035;-66
2022/06/12 04:16:00;;;;;;;44.50;8.32;;;12.80;99.90;;;;;;5035745;28;20025;-66
2022/06/12 04:18:27;;;;;;;37.90;7.22;;;12.90;99.90;;;;;;5034255;28;20032;-66
2022/06/12 04:21:01;;;;;;;44.88;7.93;;;13.00;99.90;;;;;;5035255;28;20041;-67
2022/06/12 04:23:46;;;;;;;39.53;7.38;;;13.00;99.90;;;;;;5035275;28;20033;-66
2022/06/12 04:26:22;;;;;;;44.53;7.28;;;12.90;99.90;;;;;;5035550;28;20033;-66
2022/06/12 04:28:56;;;;;;;44.25;7.82;;;12.90;99.90;;;;;;5032464;28;20028;-66
2022/06/12 04:31:21;;;;;;;45.33;8.43;;;13.00;99.90;;;;;;5035115;28;20464;-66
2022/06/12 04:34:05;;;;;;;55.58;9.45;;;13.00;99.90;;;;;;5034039;28;20057;-66
2022/06/12 04:36:31;;;;;;;51.35;9.65;;;13.00;99.90;;;;;;5035126;28;20029;-66
2022/06/12 04:38:57;;;;;;;41.22;7.90;;;13.10;99.90;;;;;;5035348;28;20079;-67
2022/06/12 04:41:29;;;;;;;46.67;6.88;;;13.10;99.90;;;;;;5043866;28;20067;-66
2022/06/12 04:43:54;;;;;;;46.03;6.68;;;13.10;99.90;;;;;;5055716;28;20428;-66
2022/06/12 04:46:21;;;;;;;36.65;7.93;;;13.10;99.90;;;;;;5055007;28;20029;-66
2022/06/12 04:48:50;;;;;;;48.78;8.38;;;13.10;99.90;;;;;;5055018;28;20033;-66
2022/06/12 04:51:16;;;;;;;32.45;7.60;;;13.20;99.90;;;;;;5054712;28;20021;-66
2022/06/12 04:53:43;;;;;;;39.60;8.85;;;13.20;99.90;;;;;;5055026;28;20036;-66
2022/06/12 04:56:09;;;;;;;42.40;8.23;;;13.30;99.90;;;;;;5054666;28;20031;-66
2022/06/12 04:58:39;;;;;;;44.25;8.30;;;13.30;99.90;;;;;;5034894;28;20112;-66
2022/06/12 05:01:05;;;;;;;34.88;7.93;;;13.40;99.90;;;;;;5034834;28;20037;-66
2022/06/12 05:03:31;;;;;;;44.47;8.00;;;13.50;99.90;;;;;;5034802;28;20550;-66
2022/06/12 05:05:57;;;;;;;49.88;7.20;;;13.60;99.90;;;;;;5034386;28;20034;-66
2022/06/12 05:08:22;;;;;;;43.60;7.43;;;13.70;99.90;;;;;;5034463;28;20025;-66
2022/06/12 05:10:48;;;;;;;37.80;6.97;;;13.60;99.90;;;;;;5034296;28;20101;-66
2022/06/12 05:13:15;;;;;;;48.75;7.57;;;13.70;99.90;;;;;;5034344;28;20474;-66
2022/06/12 05:15:41;;;;;;;44.35;8.85;;;13.60;99.90;;;;;;5034573;28;20440;-66
2022/06/12 05:18:07;;;;;;;40.28;8.00;;;13.60;99.90;;;;;;5034690;28;20056;-67
2022/06/12 05:20:35;;;;;;;56.80;9.98;;;13.70;99.90;;;;;;5034001;28;20033;-67
2022/06/12 05:23:03;;;;;;;39.60;7.25;;;13.70;99.90;;;;;;5034502;28;20040;-67
2022/06/12 05:25:30;;;;;;;45.22;7.28;;;13.80;99.90;;;;;;5034357;28;20025;-66
2022/06/12 05:27:56;;;;;;;33.15;7.25;;;13.90;99.90;;;;;;5034645;28;20049;-66
2022/06/12 05:30:24;;;;;;;31.50;6.53;;;13.90;99.90;;;;;;5033887;28;20394;-66
2022/06/12 05:32:52;;;;;;;32.47;7.38;;;14.00;99.90;;;;;;5034316;28;20022;-66
2022/06/12 05:35:20;;;;;;;42.92;6.97;;;14.10;99.90;;;;;;5033901;28;20493;-66
2022/06/12 05:37:46;;;;;;;33.72;7.20;;;14.20;99.90;;;;;;5034196;28;20021;-66
2022/06/12 05:40:17;;;;;;;42.03;7.78;;;14.30;99.90;;;;;;5033796;28;20470;-66
2022/06/12 05:42:44;;;;;;;38.33;7.43;;;14.40;99.90;;;;;;5034253;28;20033;-66
2022/06/12 05:45:14;;;;;;;34.10;7.35;;;14.60;99.90;;;;;;5033765;28;20032;-66
2022/06/12 05:47:52;;;;;;;34.13;6.15;;;14.60;99.90;;;;;;5033854;28;20029;-66
2022/06/12 05:50:19;;;;;;;41.17;7.70;;;14.70;99.90;;;;;;5034291;28;20036;-66
2022/06/12 05:52:45;;;;;;;31.88;6.10;;;14.70;99.90;;;;;;5033667;28;20033;-66
2022/06/12 05:55:11;;;;;;;36.25;6.78;;;14.90;99.90;;;;;;5033736;28;20377;-66
2022/06/12 05:57:37;;;;;;;42.38;8.60;;;15.00;99.90;;;;;;5033628;28;20068;-66
2022/06/12 06:00:05;;;;;;;34.63;8.02;;;15.10;99.90;;;;;;5033442;28;20068;-66
2022/06/12 06:02:31;;;;;;;41.58;5.80;;;15.10;99.90;;;;;;5033516;28;20402;-66
2022/06/12 06:04:57;;;;;;;35.70;6.13;;;15.20;99.90;;;;;;5039882;28;20133;-67
2022/06/12 06:07:22;;;;;;;35.38;6.07;;;15.20;99.90;;;;;;5053375;28;20391;-66
2022/06/12 06:09:48;;;;;;;27.73;6.20;;;15.40;99.90;;;;;;5053332;28;20418;-66
2022/06/12 06:12:14;;;;;;;49.70;7.35;;;15.50;99.90;;;;;;5053624;28;20017;-66
2022/06/12 06:14:40;;;;;;;42.60;9.07;;;15.60;99.90;;;;;;5053356;28;20358;-66
2022/06/12 06:17:06;;;;;;;37.13;6.00;;;15.80;99.90;;;;;;5053342;28;20049;-66
2022/06/12 06:19:32;;;;;;;30.40;6.35;;;16.00;99.90;;;;;;5053460;28;20063;-66
2022/06/12 06:21:57;;;;;;;24.40;5.70;;;16.10;99.90;;;;;;5038645;28;20092;-67
2022/06/12 06:24:23;;;;;;;35.58;5.85;;;16.30;99.90;;;;;;5033291;28;20029;-67
2022/06/12 06:26:48;;;;;;;34.00;6.82;;;16.30;99.90;;;;;;5033658;28;20041;-66
2022/06/12 06:29:14;;;;;;;36.45;6.70;;;16.40;99.90;;;;;;5033440;28;20490;-66
2022/06/12 06:31:40;;;;;;;33.13;5.78;;;16.40;99.90;;;;;;5094337;23;20044;-73
2022/06/12 06:34:06;;;;;;;45.55;7.55;;;16.70;99.90;;;;;;5074008;28;20353;-73
2022/06/12 06:36:31;;;;;;;32.75;6.88;;;16.70;99.90;;;;;;5073769;28;20026;-73
2022/06/12 06:38:57;;;;;;;36.78;5.63;;;16.80;99.90;;;;;;5073833;28;20021;-73
2022/06/12 06:41:24;;;;;;;37.47;5.97;;;17.00;99.90;;;;;;5063535;28;20021;-73
2022/06/12 06:46:35;;;;;;;41.63;6.18;;;17.50;99.90;;;;;;5053853;28;20060;-73
2022/06/12 06:49:03;;;;;;;24.77;4.90;;;17.20;99.90;;;;;;5053863;28;20021;-73
2022/06/12 06:51:30;;;;;;;37.22;7.07;;;16.90;99.90;;;;;;5053619;28;20025;-73
2022/06/12 06:53:56;;;;;;;30.65;4.60;;;16.80;99.90;;;;;;5053940;28;20013;-73
2022/06/12 06:56:23;;;;;;;39.10;6.20;;;16.90;99.90;;;;;;5053598;28;20472;-73
2022/06/12 06:58:49;;;;;;;42.55;6.25;;;17.00;99.90;;;;;;5053759;28;20072;-73
2022/06/12 07:01:15;;;;;;;33.08;6.07;;;16.90;99.90;;;;;;5053629;28;20032;-73
2022/06/12 07:03:41;;;;;;;32.58;5.55;;;16.80;99.90;;;;;;5053476;28;20037;-73
2022/06/12 07:06:13;;;;;;;32.05;7.05;;;16.80;99.90;;;;;;5053414;28;20044;-73
2022/06/12 07:08:39;;;;;;;35.40;6.05;;;16.90;99.90;;;;;;5053738;28;20021;-73
2022/06/12 07:11:05;;;;;;;37.05;5.80;;;17.10;99.90;;;;;;5053547;28;20040;-73
2022/06/12 07:13:31;;;;;;;33.50;6.75;;;17.30;99.90;;;;;;5053675;28;20021;-73
2022/06/12 07:15:56;;;;;;;38.47;6.32;;;17.50;99.90;;;;;;5053577;28;20025;-73
2022/06/12 07:18:22;;;;;;;34.70;6.07;;;17.50;99.90;;;;;;5053464;28;20476;-73
2022/06/12 07:20:56;;;;;;;29.83;5.30;;;17.50;99.90;;;;;;5053353;28;20453;-73
2022/06/12 07:23:23;;;;;;;28.88;5.78;;;17.60;99.90;;;;;;5058047;28;20035;-73
2022/06/12 07:25:53;;;;;;;45.13;6.10;;;17.90;99.90;;;;;;5057247;28;20083;-73
2022/06/12 07:28:19;;;;;;;25.80;4.53;;;18.00;99.90;;;;;;5056909;28;20024;-73
2022/06/12 07:30:45;;;;;;;31.90;6.05;;;18.00;99.90;;;;;;5056752;28;20032;-73
2022/06/12 07:33:12;;;;;;;33.20;6.10;;;18.10;99.90;;;;;;5057202;28;20060;-73
2022/06/12 07:35:40;;;;;;;35.97;5.30;;;18.40;99.90;;;;;;5056706;28;20476;-73
2022/06/12 07:38:07;;;;;;;44.30;6.35;;;18.70;99.90;;;;;;5056745;28;20361;-73
2022/06/12 07:40:41;;;;;;;34.00;5.85;;;18.70;99.90;;;;;;5056734;28;20025;-73
2022/06/12 07:43:08;;;;;;;35.00;6.00;;;18.50;99.90;;;;;;5057441;28;20412;-73
2022/06/12 07:45:35;;;;;;;40.70;5.90;;;18.30;99.90;;;;;;5056499;28;20494;-73
2022/06/12 07:48:01;;;;;;;32.47;5.93;;;18.20;99.90;;;;;;5056474;28;20036;-73
2022/06/12 07:50:26;;;;;;;37.00;5.95;;;18.10;99.90;;;;;;5056368;28;20476;-72
2022/06/12 07:52:52;;;;;;;29.13;5.90;;;17.90;99.90;;;;;;5056127;28;20025;-72
2022/06/12 07:55:19;;;;;;;29.80;6.70;;;17.90;99.90;;;;;;5056175;28;20016;-72
2022/06/12 07:57:45;;;;;;;34.97;6.03;;;18.00;99.90;;;;;;5056324;28;20068;-73
2022/06/12 08:00:13;;;;;;;29.30;5.43;;;18.00;99.90;;;;;;5055903;28;20441;-72
2022/06/12 08:02:41;;;;;;;29.65;7.00;;;18.10;99.90;;;;;;5056127;28;20032;-73
2022/06/12 08:05:07;;;;;;;26.17;5.50;;;18.20;99.90;;;;;;5056534;28;20097;-73
2022/06/12 08:07:34;;;;;;;28.98;5.88;;;18.50;99.90;;;;;;5057130;28;20389;-75
2022/06/12 08:10:00;;;;;;;30.13;4.95;;;18.70;99.90;;;;;;5057927;28;20021;-75
2022/06/12 08:12:25;;;;;;;42.95;6.00;;;19.00;99.90;;;;;;5058228;28;20480;-74
2022/06/12 08:14:53;;;;;;;42.92;7.75;;;19.10;99.90;;;;;;5056547;28;20028;-73
2022/06/12 08:17:19;;;;;;;28.23;6.10;;;19.30;99.90;;;;;;5056721;28;20048;-73
2022/06/12 08:22:28;;;;;;;32.88;5.97;;;19.90;99.90;;;;;;5055984;28;20039;-73
2022/06/12 08:24:54;;;;;;;29.38;4.88;;;19.90;99.90;;;;;;5056300;28;20108;-73
2022/06/12 08:27:20;;;;;;;30.23;5.28;;;19.50;99.90;;;;;;5055906;28;20108;-73
2022/06/12 08:29:45;;;;;;;28.92;5.80;;;19.00;99.90;;;;;;5056281;28;20021;-73
2022/06/12 08:32:16;;;;;;;31.05;6.05;;;19.00;99.90;;;;;;5071025;28;20029;-73
2022/06/12 08:34:49;;;;;;;21.35;5.28;;;19.10;99.90;;;;;;5056113;28;20069;-73
2022/06/12 08:37:19;;;;;;;38.65;5.80;;;19.00;99.90;;;;;;5056212;28;20029;-73
2022/06/12 08:39:45;;;;;;;30.83;6.07;;;19.20;99.90;;;;;;5056164;28;20064;-72
2022/06/12 08:42:24;;;;;;;32.70;6.15;;;19.20;99.90;;;;;;5055931;28;20391;-72
2022/06/12 08:45:15;;;;;;;30.45;5.70;;;19.20;99.90;;;;;;5056018;28;20537;-73
2022/06/12 08:47:49;;;;;;;33.80;6.38;;;19.00;99.90;;;;;;5055539;28;20495;-73
2022/06/12 08:50:46;;;;;;;25.65;5.38;;;19.20;99.90;;;;;;5055308;28;20036;-73
2022/06/12 08:53:33;;;;;;;30.05;5.55;;;19.40;99.90;;;;;;5055192;28;20022;-73
2022/06/12 08:56:06;;;;;;;38.10;7.00;;;19.50;99.90;;;;;;5055205;28;20108;-73
2022/06/12 08:58:41;;;;;;;30.25;5.68;;;19.60;99.90;;;;;;5055456;28;20381;-73
2022/06/12 09:01:08;;;;;;;27.83;5.85;;;19.50;99.90;;;;;;5054860;28;20021;-72
2022/06/12 09:03:40;;;;;;;36.30;7.00;;;19.20;99.90;;;;;;5055152;28;20028;-72
2022/06/12 09:06:37;;;;;;;30.17;5.70;;;19.20;99.90;;;;;;5054749;28;20020;-71
2022/06/12 09:09:20;;;;;;;30.40;6.30;;;19.20;99.90;;;;;;5054689;28;20647;-71
2022/06/12 09:11:57;;;;;;;20.75;4.15;;;19.60;99.90;;;;;;5054555;28;20025;-72
2022/06/12 09:14:54;;;;;;;31.85;5.75;;;19.90;99.90;;;;;;5055112;28;20029;-73
2022/06/12 09:17:31;;;;;;;31.67;5.72;;;19.80;99.90;;;;;;5054920;28;20025;-74
2022/06/12 09:20:12;;;;;;;28.92;5.43;;;19.90;99.90;;;;;;5054906;28;20104;-73
2022/06/12 09:23:02;;;;;;;24.77;4.57;;;20.10;99.90;;;;;;5054941;28;20028;-74
2022/06/12 09:25:49;;;;;;;38.45;6.07;;;20.00;99.90;;;;;;5054438;28;20029;-73
2022/06/12 09:28:50;;;;;;;35.78;5.70;;;19.80;99.90;;;;;;5054723;28;20053;-74
2022/06/12 09:31:29;;;;;;;35.97;6.45;;;19.80;99.90;;;;;;5054558;28;20116;-73
2022/06/12 09:34:14;;;;;;;41.33;5.35;;;19.80;99.90;;;;;;5054597;28;20488;-73
2022/06/12 09:36:56;;;;;;;29.10;5.78;;;19.90;99.90;;;;;;5069788;28;20063;-73
2022/06/12 09:39:31;;;;;;;38.45;6.38;;;19.70;99.90;;;;;;5054878;28;20021;-72
2022/06/12 09:42:07;;;;;;;32.67;6.13;;;19.70;99.90;;;;;;5054433;28;20025;-74
2022/06/12 09:44:49;;;;;;;24.88;5.18;;;19.60;99.90;;;;;;5053815;28;20029;-74
2022/06/12 09:47:41;;;;;;;29.98;6.57;;;19.80;99.90;;;;;;5054572;28;20056;-74
2022/06/12 09:50:09;;;;;;;27.20;5.40;;;20.00;99.90;;;;;;5053975;28;20029;-74
2022/06/12 09:52:40;;;;;;;30.23;6.10;;;20.10;99.90;;;;;;5054285;28;20082;-75
2022/06/12 09:55:24;;;;;;;29.80;5.97;;;20.40;99.90;;;;;;5054413;28;20052;-73
2022/06/12 09:58:26;;;;;;;25.98;4.93;;;20.30;99.90;;;;;;5054633;28;20025;-73
2022/06/12 10:01:16;;;;;;;27.85;6.18;;;20.40;99.90;;;;;;5054033;28;20025;-72
2022/06/12 10:04:19;;;;;;;21.83;4.72;;;20.30;99.90;;;;;;5054309;28;20025;-72
2022/06/12 10:06:54;;;;;;;30.02;5.53;;;20.50;99.90;;;;;;5032698;28;20040;-73
2022/06/12 10:09:37;;;;;;;29.13;5.85;;;20.40;99.90;;;;;;5054149;28;20095;-73
2022/06/12 10:12:13;;;;;;;25.23;5.35;;;20.50;99.90;;;;;;5053893;28;20115;-73
2022/06/12 10:14:43;;;;;;;29.42;5.30;;;20.60;99.90;;;;;;5053927;28;20032;-72
2022/06/12 10:17:20;;;;;;;19.85;3.95;;;20.40;99.90;;;;;;5054101;28;20035;-73
2022/06/12 10:20:05;;;;;;;26.52;4.85;;;20.60;99.90;;;;;;5054009;28;20017;-73
2022/06/12 10:22:35;;;;;;;37.35;6.22;;;20.60;99.90;;;;;;5053884;28;20029;-73
2022/06/12 10:25:04;;;;;;;22.85;4.55;;;20.70;99.90;;;;;;5054014;28;20013;-73
2022/06/12 10:27:44;;;;;;;33.40;4.88;;;20.80;99.90;;;;;;5054179;28;20116;-73
2022/06/12 10:30:25;;;;;;;21.38;4.40;;;20.70;99.90;;;;;;5055298;28;20028;-74
2022/06/12 10:32:54;;;;;;;30.67;5.55;;;20.70;99.90;;;;;;5056095;28;20071;-74
2022/06/12 10:35:23;;;;;;;27.25;5.25;;;20.80;99.90;;;;;;5054139;28;20025;-74
2022/06/12 10:37:49;;;;;;;27.25;5.90;;;20.60;99.90;;;;;;5053863;28;20017;-75
2022/06/12 10:40:26;;;;;;;25.33;4.47;;;20.80;99.90;;;;;;5053707;28;20095;-74
2022/06/12 10:43:00;;;;;;;19.67;4.45;;;20.90;99.90;;;;;;5054098;28;20540;-73
2022/06/12 10:45:33;;;;;;;27.85;5.00;;;21.00;99.90;;;;;;5053781;28;20060;-74
2022/06/12 10:48:02;;;;;;;20.65;4.47;;;20.80;99.90;;;;;;5053857;28;20489;-72
2022/06/12 10:50:31;;;;;;;32.90;5.50;;;20.50;99.90;;;;;;5053775;28;20021;-73
2022/06/12 10:53:18;;;;;;;29.25;6.25;;;20.50;99.90;;;;;;5053607;28;20146;-72
2022/06/12 10:56:31;;;;;;;37.60;6.60;;;20.50;99.90;;;;;;5053982;28;20024;-72
2022/06/12 10:59:19;;;;;;;24.65;4.82;;;20.50;99.90;;;;;;5020829;28;20042;-72
2022/06/12 11:02:02;;;;;;;26.85;4.95;;;20.60;99.90;;;;;;5057740;28;20029;-72
2022/06/12 11:04:49;;;;;;;30.30;5.63;;;20.90;99.90;;;;;;5057528;28;20392;-73
2022/06/12 11:07:35;;;;;;;27.92;5.75;;;20.90;99.90;;;;;;5057489;28;20513;-72
2022/06/12 11:10:22;;;;;;;31.42;5.93;;;20.80;99.90;;;;;;5057064;28;20362;-72
2022/06/12 11:12:58;;;;;;;16.55;4.00;;;20.80;99.90;;;;;;5057507;28;20025;-72
2022/06/12 11:15:57;;;;;;;24.95;5.38;;;20.80;99.90;;;;;;5057460;28;20040;-72
2022/06/12 11:18:41;;;;;;;25.55;5.22;;;21.00;99.90;;;;;;5057107;28;20020;-71
2022/06/12 11:21:41;;;;;;;25.63;4.57;;;21.00;99.90;;;;;;5072311;28;20108;-71
2022/06/12 11:24:57;;;;;;;27.13;4.85;;;20.80;99.90;;;;;;5057385;28;20021;-72
2022/06/12 11:27:54;;;;;;;20.63;5.13;;;20.50;99.90;;;;;;5039489;28;20119;-72
2022/06/12 11:30:39;;;;;;;21.58;5.05;;;20.80;99.90;;;;;;5039233;28;20037;-72
2022/06/12 11:33:48;;;;;;;26.90;5.05;;;21.00;99.90;;;;;;5057225;28;20117;-71
2022/06/12 11:36:27;;;;;;;28.92;4.45;;;21.30;99.90;;;;;;5046453;28;20041;-72
2022/06/12 11:38:52;;;;;;;23.90;4.50;;;21.10;99.90;;;;;;5056820;28;20071;-72
2022/06/12 11:41:37;;;;;;;16.10;3.53;;;20.80;99.90;;;;;;5056760;28;20104;-71
2022/06/12 11:44:10;;;;;;;15.98;3.35;;;20.80;99.90;;;;;;5056943;28;20024;-72
2022/06/12 11:46:39;;;;;;;18.95;4.53;;;20.70;99.90;;;;;;5057026;28;20025;-72
2022/06/12 11:49:26;;;;;;;23.65;4.35;;;20.60;99.90;;;;;;5056547;28;20028;-72
2022/06/12 11:52:00;;;;;;;14.75;4.20;;;20.50;99.90;;;;;;5056500;28;20021;-72
2022/06/12 11:54:53;;;;;;;18.08;3.95;;;20.60;99.90;;;;;;5056749;28;20473;-73
2022/06/12 11:57:40;;;;;;;14.35;3.42;;;20.80;99.90;;;;;;5056871;28;20036;-73
2022/06/12 12:00:13;;;;;;;14.82;3.30;;;20.80;99.90;;;;;;5056633;28;20466;-73
2022/06/12 12:02:44;;;;;;;12.20;3.50;;;20.80;99.90;;;;;;5056213;28;20115;-73
2022/06/12 12:05:24;;;;;;;12.75;3.03;;;21.00;99.90;;;;;;5056461;28;20051;-73
2022/06/12 12:07:59;;;;;;;15.57;3.75;;;21.20;99.90;;;;;;5055781;28;20029;-73
2022/06/12 12:10:38;;;;;;;12.43;3.25;;;21.50;99.90;;;;;;5056370;28;20031;-72
2022/06/12 12:13:10;;;;;;;11.60;3.13;;;21.60;99.90;;;;;;5056208;28;20017;-73
2022/06/12 12:15:51;;;;;;;10.57;2.80;;;21.60;99.90;;;;;;5056051;28;20029;-73
2022/06/12 12:18:41;;;;;;;8.00;2.47;;;21.40;99.90;;;;;;5056441;28;20151;-73
2022/06/12 12:21:30;;;;;;;10.63;2.65;;;21.40;99.90;;;;;;5056061;28;20074;-73
2022/06/12 12:23:57;;;;;;;14.73;3.60;;;21.60;99.90;;;;;;5049475;28;20037;-73
2022/06/12 12:26:25;;;;;;;14.27;3.15;;;21.60;99.90;;;;;;5056070;28;20508;-73
2022/06/12 12:28:55;;;;;;;14.93;3.00;;;21.40;99.90;;;;;;5055827;28;20024;-73
2022/06/12 12:31:22;;;;;;;15.20;3.10;;;21.70;99.90;;;;;;5081065;23;20135;-66
2022/06/12 12:33:50;;;;;;;16.75;3.97;;;21.90;99.90;;;;;;5075101;28;20071;-66
2022/06/12 12:41:56;;;;;;;11.85;3.38;;;22.00;99.90;;;;;;5066745;28;20123;-66
2022/06/12 12:44:39;;;;;;;14.05;3.53;;;21.90;99.90;;;;;;5055232;28;20381;-66
2022/06/12 12:47:18;;;;;;;5.53;2.20;;;22.20;99.90;;;;;;5055100;28;20135;-66
2022/06/12 12:49:44;;;;;;;18.50;3.38;;;21.90;99.90;;;;;;5055105;28;20096;-65
2022/06/12 12:52:16;;;;;;;15.05;2.85;;;21.90;99.90;;;;;;5054637;28;20404;-65
2022/06/12 12:55:00;;;;;;;14.73;3.03;;;22.30;99.90;;;;;;5054996;28;20086;-66
2022/06/12 12:57:39;;;;;;;16.98;3.72;;;22.50;99.90;;;;;;5054755;28;20021;-67
2022/06/12 13:00:19;;;;;;;9.57;2.88;;;22.70;99.90;;;;;;5054642;28;20057;-67
2022/06/12 13:02:59;;;;;;;18.45;3.13;;;22.50;99.90;;;;;;5054436;28;20028;-67
2022/06/12 13:05:47;;;;;;;12.75;2.65;;;23.10;99.90;;;;;;5054792;28;20029;-67
2022/06/12 13:08:37;;;;;;;9.73;3.05;;;23.20;99.90;;;;;;5054686;28;20053;-67
2022/06/12 13:11:24;;;;;;;14.05;3.30;;;23.10;99.90;;;;;;5054397;28;20024;-68
2022/06/12 13:13:52;;;;;;;8.50;3.08;;;23.40;99.90;;;;;;5055014;28;20029;-67
2022/06/12 13:16:22;;;;;;;16.55;3.33;;;22.90;99.90;;;;;;5054323;28;20436;-68
2022/06/12 13:19:09;;;;;;;9.13;2.95;;;23.10;99.90;;;;;;5054101;28;20082;-67
2022/06/12 13:21:56;;;;;;;14.05;2.85;;;23.40;99.90;;;;;;5054411;28;20029;-67
2022/06/12 13:24:33;;;;;;;12.65;3.55;;;23.20;99.90;;;;;;5054150;28;20104;-67
2022/06/12 13:27:12;;;;;;;13.98;2.95;;;23.10;99.90;;;;;;5054314;28;20028;-67
2022/06/12 13:29:44;;;;;;;26.00;4.18;;;23.20;99.90;;;;;;5054410;28;20025;-67
2022/06/12 13:32:23;;;;;;;15.93;3.28;;;23.30;99.90;;;;;;5053541;28;20373;-68
2022/06/12 13:34:58;;;;;;;10.35;2.58;;;22.70;99.90;;;;;;5054592;28;20469;-67